sensor_id;sensor_type;location;lat;lon;timestamp;P1;durP1;ratioP1;P2;durP2;ratioP2
6203;SDS011;3135;42.602;23.468;2023-04-15T00:00:02;1.63;;;1.10;;
6203;SDS011;3135;42.602;23.468;2023-04-15T00:02:28;1.55;;;0.90;;
6203;SDS011;3135;42.602;23.468;2023-04-15T00:04:54;1.67;;;0.63;;
6203;SDS011;3135;42.602;23.468;2023-04-15T00:07:19;0.80;;;0.70;;
6203;SDS011;3135;42.602;23.468;2023-04-15T00:09:44;0.70;;;0.60;;
6203;SDS011;3135;42.602;23.468;2023-04-15T00:12:10;1.20;;;0.70;;
6203;SDS011;3135;42.602;23.468;2023-04-15T00:14:36;3.75;;;0.70;;
6203;SDS011;3135;42.602;23.468;2023-04-15T00:17:02;0.90;;;0.70;;
6203;SDS011;3135;42.602;23.468;2023-04-15T00:19:29;2.00;;;0.63;;
6203;SDS011;3135;42.602;23.468;2023-04-15T00:21:55;2.00;;;0.60;;
6203;SDS011;3135;42.602;23.468;2023-04-15T00:24:21;1.80;;;0.65;;
6203;SDS011;3135;42.602;23.468;2023-04-15T00:26:47;0.90;;;0.60;;
6203;SDS011;3135;42.602;23.468;2023-04-15T00:29:13;4.30;;;2.53;;
6203;SDS011;3135;42.602;23.468;2023-04-15T00:31:39;2.00;;;1.00;;
6203;SDS011;3135;42.602;23.468;2023-04-15T00:34:06;0.88;;;0.70;;
6203;SDS011;3135;42.602;23.468;2023-04-15T00:36:31;0.68;;;0.68;;
6203;SDS011;3135;42.602;23.468;2023-04-15T00:38:59;2.25;;;0.70;;
6203;SDS011;3135;42.602;23.468;2023-04-15T00:41:24;1.52;;;0.70;;
6203;SDS011;3135;42.602;23.468;2023-04-15T00:43:50;1.88;;;0.60;;
6203;SDS011;3135;42.602;23.468;2023-04-15T00:46:15;2.00;;;0.68;;
6203;SDS011;3135;42.602;23.468;2023-04-15T00:48:44;3.20;;;0.90;;
6203;SDS011;3135;42.602;23.468;2023-04-15T00:51:10;2.00;;;0.65;;
6203;SDS011;3135;42.602;23.468;2023-04-15T00:53:36;2.00;;;0.67;;
6203;SDS011;3135;42.602;23.468;2023-04-15T00:56:01;1.53;;;0.73;;
6203;SDS011;3135;42.602;23.468;2023-04-15T00:58:27;1.57;;;1.10;;
6203;SDS011;3135;42.602;23.468;2023-04-15T01:00:53;1.15;;;0.80;;
6203;SDS011;3135;42.602;23.468;2023-04-15T01:03:20;1.02;;;0.70;;
6203;SDS011;3135;42.602;23.468;2023-04-15T01:05:45;2.63;;;0.77;;
6203;SDS011;3135;42.602;23.468;2023-04-15T01:08:11;0.98;;;0.60;;
6203;SDS011;3135;42.602;23.468;2023-04-15T01:10:37;2.70;;;0.70;;
6203;SDS011;3135;42.602;23.468;2023-04-15T01:13:03;0.68;;;0.60;;
6203;SDS011;3135;42.602;23.468;2023-04-15T01:15:29;1.15;;;0.60;;
6203;SDS011;3135;42.602;23.468;2023-04-15T01:17:56;0.80;;;0.70;;
6203;SDS011;3135;42.602;23.468;2023-04-15T01:20:22;0.70;;;0.70;;
6203;SDS011;3135;42.602;23.468;2023-04-15T01:22:48;1.77;;;0.70;;
6203;SDS011;3135;42.602;23.468;2023-04-15T01:25:17;0.80;;;0.63;;
6203;SDS011;3135;42.602;23.468;2023-04-15T01:27:44;1.80;;;0.65;;
6203;SDS011;3135;42.602;23.468;2023-04-15T01:30:09;0.87;;;0.70;;
6203;SDS011;3135;42.602;23.468;2023-04-15T01:32:35;2.77;;;0.60;;
6203;SDS011;3135;42.602;23.468;2023-04-15T01:35:01;0.60;;;0.57;;
6203;SDS011;3135;42.602;23.468;2023-04-15T01:37:26;0.90;;;0.60;;
6203;SDS011;3135;42.602;23.468;2023-04-15T01:39:52;0.60;;;0.60;;
6203;SDS011;3135;42.602;23.468;2023-04-15T01:42:18;0.80;;;0.60;;
6203;SDS011;3135;42.602;23.468;2023-04-15T01:44:45;0.73;;;0.60;;
6203;SDS011;3135;42.602;23.468;2023-04-15T01:47:10;1.30;;;0.60;;
6203;SDS011;3135;42.602;23.468;2023-04-15T01:49:36;0.80;;;0.60;;
6203;SDS011;3135;42.602;23.468;2023-04-15T01:52:01;1.40;;;0.50;;
6203;SDS011;3135;42.602;23.468;2023-04-15T01:54:27;2.03;;;0.90;;
6203;SDS011;3135;42.602;23.468;2023-04-15T01:56:52;1.20;;;0.60;;
6203;SDS011;3135;42.602;23.468;2023-04-15T01:59:18;1.07;;;0.80;;
6203;SDS011;3135;42.602;23.468;2023-04-15T02:01:43;0.70;;;0.70;;
6203;SDS011;3135;42.602;23.468;2023-04-15T02:04:11;1.60;;;0.77;;
6203;SDS011;3135;42.602;23.468;2023-04-15T02:06:42;1.67;;;0.70;;
6203;SDS011;3135;42.602;23.468;2023-04-15T02:09:08;0.70;;;0.70;;
6203;SDS011;3135;42.602;23.468;2023-04-15T02:11:34;1.00;;;0.90;;
6203;SDS011;3135;42.602;23.468;2023-04-15T02:14:01;1.70;;;0.73;;
6203;SDS011;3135;42.602;23.468;2023-04-15T02:16:28;1.60;;;1.00;;
6203;SDS011;3135;42.602;23.468;2023-04-15T02:18:53;2.67;;;1.27;;
6203;SDS011;3135;42.602;23.468;2023-04-15T02:21:19;3.58;;;1.10;;
6203;SDS011;3135;42.602;23.468;2023-04-15T02:23:44;2.10;;;1.03;;
6203;SDS011;3135;42.602;23.468;2023-04-15T02:26:12;1.70;;;0.90;;
6203;SDS011;3135;42.602;23.468;2023-04-15T02:28:37;4.68;;;1.10;;
6203;SDS011;3135;42.602;23.468;2023-04-15T02:31:06;3.07;;;1.00;;
6203;SDS011;3135;42.602;23.468;2023-04-15T02:33:32;3.07;;;0.97;;
6203;SDS011;3135;42.602;23.468;2023-04-15T02:35:57;3.88;;;1.00;;
6203;SDS011;3135;42.602;23.468;2023-04-15T02:38:23;0.80;;;0.80;;
6203;SDS011;3135;42.602;23.468;2023-04-15T02:40:49;2.67;;;0.90;;
6203;SDS011;3135;42.602;23.468;2023-04-15T02:43:15;3.00;;;0.97;;
6203;SDS011;3135;42.602;23.468;2023-04-15T02:45:41;1.58;;;0.77;;
6203;SDS011;3135;42.602;23.468;2023-04-15T02:48:07;1.92;;;0.77;;
6203;SDS011;3135;42.602;23.468;2023-04-15T02:50:33;0.80;;;0.70;;
6203;SDS011;3135;42.602;23.468;2023-04-15T02:52:59;1.05;;;0.85;;
6203;SDS011;3135;42.602;23.468;2023-04-15T02:55:25;1.33;;;1.13;;
6203;SDS011;3135;42.602;23.468;2023-04-15T02:57:51;2.45;;;0.85;;
6203;SDS011;3135;42.602;23.468;2023-04-15T03:00:16;2.70;;;0.80;;
6203;SDS011;3135;42.602;23.468;2023-04-15T03:02:42;0.70;;;0.70;;
6203;SDS011;3135;42.602;23.468;2023-04-15T03:05:12;1.13;;;0.70;;
6203;SDS011;3135;42.602;23.468;2023-04-15T03:07:38;2.95;;;0.70;;
6203;SDS011;3135;42.602;23.468;2023-04-15T03:10:05;1.88;;;0.80;;
6203;SDS011;3135;42.602;23.468;2023-04-15T03:12:31;1.77;;;0.70;;
6203;SDS011;3135;42.602;23.468;2023-04-15T03:14:57;2.37;;;0.77;;
6203;SDS011;3135;42.602;23.468;2023-04-15T03:17:22;2.43;;;0.90;;
6203;SDS011;3135;42.602;23.468;2023-04-15T03:19:48;2.63;;;0.90;;
6203;SDS011;3135;42.602;23.468;2023-04-15T03:22:14;1.40;;;1.00;;
6203;SDS011;3135;42.602;23.468;2023-04-15T03:24:39;1.50;;;1.00;;
6203;SDS011;3135;42.602;23.468;2023-04-15T03:27:05;1.70;;;0.80;;
6203;SDS011;3135;42.602;23.468;2023-04-15T03:29:32;0.83;;;0.83;;
6203;SDS011;3135;42.602;23.468;2023-04-15T03:31:57;1.50;;;0.80;;
6203;SDS011;3135;42.602;23.468;2023-04-15T03:34:23;2.10;;;0.90;;
6203;SDS011;3135;42.602;23.468;2023-04-15T03:36:48;0.97;;;0.80;;
6203;SDS011;3135;42.602;23.468;2023-04-15T03:39:14;0.93;;;0.80;;
6203;SDS011;3135;42.602;23.468;2023-04-15T03:41:39;1.20;;;0.80;;
6203;SDS011;3135;42.602;23.468;2023-04-15T03:44:05;2.20;;;0.80;;
6203;SDS011;3135;42.602;23.468;2023-04-15T03:46:30;0.93;;;0.90;;
6203;SDS011;3135;42.602;23.468;2023-04-15T03:48:56;1.00;;;0.80;;
6203;SDS011;3135;42.602;23.468;2023-04-15T03:51:21;2.80;;;0.80;;
6203;SDS011;3135;42.602;23.468;2023-04-15T03:53:46;2.97;;;2.43;;
6203;SDS011;3135;42.602;23.468;2023-04-15T03:56:12;0.80;;;0.80;;
6203;SDS011;3135;42.602;23.468;2023-04-15T03:58:37;1.10;;;0.70;;
6203;SDS011;3135;42.602;23.468;2023-04-15T04:01:03;1.27;;;0.77;;
6203;SDS011;3135;42.602;23.468;2023-04-15T04:03:28;1.60;;;1.33;;
6203;SDS011;3135;42.602;23.468;2023-04-15T04:05:53;2.50;;;0.80;;
6203;SDS011;3135;42.602;23.468;2023-04-15T04:08:19;1.77;;;0.70;;
6203;SDS011;3135;42.602;23.468;2023-04-15T04:10:45;0.82;;;0.63;;
6203;SDS011;3135;42.602;23.468;2023-04-15T04:13:11;2.00;;;0.90;;
6203;SDS011;3135;42.602;23.468;2023-04-15T04:15:36;1.77;;;1.00;;
6203;SDS011;3135;42.602;23.468;2023-04-15T04:18:01;3.28;;;1.88;;
6203;SDS011;3135;42.602;23.468;2023-04-15T04:20:27;4.05;;;1.40;;
6203;SDS011;3135;42.602;23.468;2023-04-15T04:22:53;1.73;;;1.30;;
6203;SDS011;3135;42.602;23.468;2023-04-15T04:25:18;2.20;;;1.73;;
6203;SDS011;3135;42.602;23.468;2023-04-15T04:27:43;4.37;;;2.03;;
6203;SDS011;3135;42.602;23.468;2023-04-15T04:30:09;3.57;;;2.10;;
6203;SDS011;3135;42.602;23.468;2023-04-15T04:32:36;14.07;;;6.50;;
6203;SDS011;3135;42.602;23.468;2023-04-15T04:35:01;24.07;;;11.67;;
6203;SDS011;3135;42.602;23.468;2023-04-15T04:37:28;9.98;;;5.00;;
6203;SDS011;3135;42.602;23.468;2023-04-15T04:39:53;11.97;;;6.27;;
6203;SDS011;3135;42.602;23.468;2023-04-15T04:42:18;7.73;;;4.50;;
6203;SDS011;3135;42.602;23.468;2023-04-15T04:44:44;6.77;;;4.00;;
6203;SDS011;3135;42.602;23.468;2023-04-15T04:47:09;3.50;;;3.20;;
6203;SDS011;3135;42.602;23.468;2023-04-15T04:49:35;6.37;;;2.57;;
6203;SDS011;3135;42.602;23.468;2023-04-15T04:52:00;4.77;;;2.90;;
6203;SDS011;3135;42.602;23.468;2023-04-15T04:54:26;5.05;;;2.60;;
6203;SDS011;3135;42.602;23.468;2023-04-15T04:56:52;6.03;;;3.67;;
6203;SDS011;3135;42.602;23.468;2023-04-15T04:59:17;12.57;;;5.30;;
6203;SDS011;3135;42.602;23.468;2023-04-15T05:01:42;11.33;;;5.27;;
6203;SDS011;3135;42.602;23.468;2023-04-15T05:04:08;8.00;;;4.00;;
6203;SDS011;3135;42.602;23.468;2023-04-15T05:06:33;9.38;;;4.68;;
6203;SDS011;3135;42.602;23.468;2023-04-15T05:09:00;8.18;;;4.43;;
6203;SDS011;3135;42.602;23.468;2023-04-15T05:11:27;7.22;;;4.15;;
6203;SDS011;3135;42.602;23.468;2023-04-15T05:13:52;8.17;;;3.73;;
6203;SDS011;3135;42.602;23.468;2023-04-15T05:16:18;4.67;;;3.40;;
6203;SDS011;3135;42.602;23.468;2023-04-15T05:18:44;5.65;;;3.30;;
6203;SDS011;3135;42.602;23.468;2023-04-15T05:21:10;5.20;;;3.13;;
6203;SDS011;3135;42.602;23.468;2023-04-15T05:23:35;8.45;;;3.50;;
6203;SDS011;3135;42.602;23.468;2023-04-15T05:26:01;6.10;;;3.50;;
6203;SDS011;3135;42.602;23.468;2023-04-15T05:28:27;8.13;;;3.30;;
6203;SDS011;3135;42.602;23.468;2023-04-15T05:30:53;4.70;;;3.30;;
6203;SDS011;3135;42.602;23.468;2023-04-15T05:33:18;7.30;;;3.65;;
6203;SDS011;3135;42.602;23.468;2023-04-15T05:35:44;4.73;;;3.07;;
6203;SDS011;3135;42.602;23.468;2023-04-15T05:38:10;9.20;;;3.50;;
6203;SDS011;3135;42.602;23.468;2023-04-15T05:40:35;7.00;;;3.63;;
6203;SDS011;3135;42.602;23.468;2023-04-15T05:47:43;10.68;;;5.28;;
6203;SDS011;3135;42.602;23.468;2023-04-15T05:50:08;16.75;;;7.35;;
6203;SDS011;3135;42.602;23.468;2023-04-15T05:52:34;14.27;;;6.78;;
6203;SDS011;3135;42.602;23.468;2023-04-15T05:55:00;9.13;;;5.13;;
6203;SDS011;3135;42.602;23.468;2023-04-15T05:57:25;8.37;;;4.33;;
6203;SDS011;3135;42.602;23.468;2023-04-15T05:59:50;4.73;;;2.23;;
6203;SDS011;3135;42.602;23.468;2023-04-15T06:02:16;3.65;;;1.50;;
6203;SDS011;3135;42.602;23.468;2023-04-15T06:04:42;2.35;;;1.48;;
6203;SDS011;3135;42.602;23.468;2023-04-15T06:07:08;2.88;;;1.13;;
6203;SDS011;3135;42.602;23.468;2023-04-15T06:09:33;1.73;;;1.05;;
6203;SDS011;3135;42.602;23.468;2023-04-15T06:11:59;1.90;;;1.10;;
6203;SDS011;3135;42.602;23.468;2023-04-15T06:14:25;3.70;;;1.15;;
6203;SDS011;3135;42.602;23.468;2023-04-15T06:16:51;2.10;;;1.40;;
6203;SDS011;3135;42.602;23.468;2023-04-15T06:19:16;9.40;;;4.20;;
6203;SDS011;3135;42.602;23.468;2023-04-15T06:21:42;5.20;;;2.50;;
6203;SDS011;3135;42.602;23.468;2023-04-15T06:24:08;3.40;;;1.30;;
6203;SDS011;3135;42.602;23.468;2023-04-15T06:26:34;6.30;;;3.20;;
6203;SDS011;3135;42.602;23.468;2023-04-15T06:28:59;3.87;;;2.00;;
6203;SDS011;3135;42.602;23.468;2023-04-15T06:31:25;1.63;;;1.53;;
6203;SDS011;3135;42.602;23.468;2023-04-15T06:33:50;2.45;;;1.67;;
6203;SDS011;3135;42.602;23.468;2023-04-15T06:36:16;2.60;;;1.40;;
6203;SDS011;3135;42.602;23.468;2023-04-15T06:38:41;7.15;;;3.22;;
6203;SDS011;3135;42.602;23.468;2023-04-15T06:41:07;2.10;;;1.30;;
6203;SDS011;3135;42.602;23.468;2023-04-15T06:43:32;2.60;;;1.30;;
6203;SDS011;3135;42.602;23.468;2023-04-15T06:45:58;3.58;;;1.70;;
6203;SDS011;3135;42.602;23.468;2023-04-15T06:48:23;2.50;;;1.77;;
6203;SDS011;3135;42.602;23.468;2023-04-15T06:50:48;2.90;;;1.83;;
6203;SDS011;3135;42.602;23.468;2023-04-15T06:53:14;5.95;;;1.85;;
6203;SDS011;3135;42.602;23.468;2023-04-15T06:55:40;3.28;;;1.52;;
6203;SDS011;3135;42.602;23.468;2023-04-15T06:58:05;2.92;;;1.45;;
6203;SDS011;3135;42.602;23.468;2023-04-15T07:00:31;3.20;;;1.40;;
6203;SDS011;3135;42.602;23.468;2023-04-15T07:02:58;1.30;;;1.08;;
6203;SDS011;3135;42.602;23.468;2023-04-15T07:05:27;3.38;;;1.60;;
6203;SDS011;3135;42.602;23.468;2023-04-15T07:07:53;1.85;;;1.15;;
6203;SDS011;3135;42.602;23.468;2023-04-15T07:10:19;3.20;;;2.07;;
6203;SDS011;3135;42.602;23.468;2023-04-15T07:12:45;3.40;;;1.70;;
6203;SDS011;3135;42.602;23.468;2023-04-15T07:15:10;3.77;;;2.53;;
6203;SDS011;3135;42.602;23.468;2023-04-15T07:17:36;4.60;;;1.60;;
6203;SDS011;3135;42.602;23.468;2023-04-15T07:20:02;3.90;;;1.80;;
6203;SDS011;3135;42.602;23.468;2023-04-15T07:22:28;7.57;;;1.90;;
6203;SDS011;3135;42.602;23.468;2023-04-15T07:24:54;4.63;;;2.40;;
6203;SDS011;3135;42.602;23.468;2023-04-15T07:27:20;3.63;;;1.53;;
6203;SDS011;3135;42.602;23.468;2023-04-15T07:29:45;4.23;;;1.70;;
6203;SDS011;3135;42.602;23.468;2023-04-15T07:32:10;3.57;;;1.60;;
6203;SDS011;3135;42.602;23.468;2023-04-15T07:34:36;1.55;;;1.20;;
6203;SDS011;3135;42.602;23.468;2023-04-15T07:37:02;2.63;;;1.67;;
6203;SDS011;3135;42.602;23.468;2023-04-15T07:39:27;2.30;;;1.50;;
6203;SDS011;3135;42.602;23.468;2023-04-15T07:41:53;4.40;;;1.67;;
6203;SDS011;3135;42.602;23.468;2023-04-15T07:44:19;5.28;;;1.88;;
6203;SDS011;3135;42.602;23.468;2023-04-15T07:46:44;2.72;;;1.60;;
6203;SDS011;3135;42.602;23.468;2023-04-15T07:49:10;3.20;;;2.30;;
6203;SDS011;3135;42.602;23.468;2023-04-15T07:51:36;2.95;;;1.40;;
6203;SDS011;3135;42.602;23.468;2023-04-15T07:54:02;2.20;;;1.80;;
6203;SDS011;3135;42.602;23.468;2023-04-15T07:56:28;2.03;;;1.40;;
6203;SDS011;3135;42.602;23.468;2023-04-15T07:58:53;2.53;;;1.30;;
6203;SDS011;3135;42.602;23.468;2023-04-15T08:01:19;1.80;;;1.00;;
6203;SDS011;3135;42.602;23.468;2023-04-15T08:03:45;2.27;;;1.20;;
6203;SDS011;3135;42.602;23.468;2023-04-15T08:06:11;3.03;;;1.40;;
6203;SDS011;3135;42.602;23.468;2023-04-15T08:08:36;1.20;;;1.10;;
6203;SDS011;3135;42.602;23.468;2023-04-15T08:11:01;2.67;;;1.10;;
6203;SDS011;3135;42.602;23.468;2023-04-15T08:13:27;2.87;;;0.97;;
6203;SDS011;3135;42.602;23.468;2023-04-15T08:16:12;1.43;;;1.03;;
6203;SDS011;3135;42.602;23.468;2023-04-15T08:18:45;2.73;;;1.27;;
6203;SDS011;3135;42.602;23.468;2023-04-15T08:21:11;4.00;;;2.10;;
6203;SDS011;3135;42.602;23.468;2023-04-15T08:23:37;6.43;;;3.10;;
6203;SDS011;3135;42.602;23.468;2023-04-15T08:26:03;2.50;;;1.20;;
6203;SDS011;3135;42.602;23.468;2023-04-15T08:28:29;2.78;;;1.10;;
6203;SDS011;3135;42.602;23.468;2023-04-15T08:30:54;3.30;;;1.30;;
6203;SDS011;3135;42.602;23.468;2023-04-15T08:33:20;3.13;;;1.10;;
6203;SDS011;3135;42.602;23.468;2023-04-15T08:35:47;3.20;;;1.40;;
6203;SDS011;3135;42.602;23.468;2023-04-15T08:38:13;1.43;;;1.20;;
6203;SDS011;3135;42.602;23.468;2023-04-15T08:40:42;3.53;;;1.10;;
6203;SDS011;3135;42.602;23.468;2023-04-15T08:43:10;2.33;;;1.10;;
6203;SDS011;3135;42.602;23.468;2023-04-15T08:45:39;1.27;;;1.00;;
6203;SDS011;3135;42.602;23.468;2023-04-15T08:48:05;2.83;;;1.00;;
6203;SDS011;3135;42.602;23.468;2023-04-15T08:50:32;1.60;;;1.10;;
6203;SDS011;3135;42.602;23.468;2023-04-15T08:52:58;1.80;;;1.10;;
6203;SDS011;3135;42.602;23.468;2023-04-15T08:55:25;15.52;;;7.00;;
6203;SDS011;3135;42.602;23.468;2023-04-15T08:57:54;2.95;;;1.60;;
6203;SDS011;3135;42.602;23.468;2023-04-15T09:00:21;2.40;;;1.65;;
6203;SDS011;3135;42.602;23.468;2023-04-15T09:02:47;3.57;;;2.17;;
6203;SDS011;3135;42.602;23.468;2023-04-15T09:05:12;7.77;;;2.57;;
6203;SDS011;3135;42.602;23.468;2023-04-15T09:07:38;2.10;;;1.03;;
6203;SDS011;3135;42.602;23.468;2023-04-15T09:10:04;1.67;;;1.33;;
6203;SDS011;3135;42.602;23.468;2023-04-15T09:12:32;3.75;;;1.15;;
6203;SDS011;3135;42.602;23.468;2023-04-15T09:15:01;2.00;;;1.10;;
6203;SDS011;3135;42.602;23.468;2023-04-15T09:17:27;1.85;;;1.10;;
6203;SDS011;3135;42.602;23.468;2023-04-15T09:22:35;1.60;;;1.00;;
6203;SDS011;3135;42.602;23.468;2023-04-15T09:25:01;2.60;;;1.20;;
6203;SDS011;3135;42.602;23.468;2023-04-15T09:27:27;2.58;;;1.20;;
6203;SDS011;3135;42.602;23.468;2023-04-15T09:29:53;1.98;;;1.02;;
6203;SDS011;3135;42.602;23.468;2023-04-15T09:32:18;0.70;;;0.70;;
6203;SDS011;3135;42.602;23.468;2023-04-15T09:34:45;2.33;;;0.90;;
6203;SDS011;3135;42.602;23.468;2023-04-15T09:37:12;6.30;;;2.87;;
6203;SDS011;3135;42.602;23.468;2023-04-15T09:39:46;2.08;;;1.30;;
6203;SDS011;3135;42.602;23.468;2023-04-15T09:42:14;2.50;;;1.20;;
6203;SDS011;3135;42.602;23.468;2023-04-15T09:44:41;2.53;;;1.15;;
6203;SDS011;3135;42.602;23.468;2023-04-15T09:47:07;4.03;;;1.30;;
6203;SDS011;3135;42.602;23.468;2023-04-15T09:49:32;2.20;;;1.10;;
6203;SDS011;3135;42.602;23.468;2023-04-15T09:51:58;3.30;;;1.03;;
6203;SDS011;3135;42.602;23.468;2023-04-15T09:54:30;2.25;;;0.93;;
6203;SDS011;3135;42.602;23.468;2023-04-15T09:57:03;3.25;;;0.98;;
6203;SDS011;3135;42.602;23.468;2023-04-15T09:59:37;1.63;;;1.00;;
6203;SDS011;3135;42.602;23.468;2023-04-15T10:02:03;2.00;;;1.10;;
6203;SDS011;3135;42.602;23.468;2023-04-15T10:04:31;1.90;;;1.30;;
6203;SDS011;3135;42.602;23.468;2023-04-15T10:06:59;2.30;;;1.20;;
6203;SDS011;3135;42.602;23.468;2023-04-15T10:09:26;1.85;;;0.90;;
6203;SDS011;3135;42.602;23.468;2023-04-15T10:11:52;2.03;;;1.35;;
6203;SDS011;3135;42.602;23.468;2023-04-15T10:14:17;2.38;;;1.40;;
6203;SDS011;3135;42.602;23.468;2023-04-15T10:16:44;2.80;;;1.07;;
6203;SDS011;3135;42.602;23.468;2023-04-15T10:19:13;2.00;;;1.20;;
6203;SDS011;3135;42.602;23.468;2023-04-15T10:21:43;1.48;;;0.80;;
6203;SDS011;3135;42.602;23.468;2023-04-15T10:24:09;1.55;;;0.88;;
6203;SDS011;3135;42.602;23.468;2023-04-15T10:26:36;1.40;;;0.80;;
6203;SDS011;3135;42.602;23.468;2023-04-15T10:29:02;3.67;;;1.00;;
6203;SDS011;3135;42.602;23.468;2023-04-15T10:31:27;4.05;;;1.52;;
6203;SDS011;3135;42.602;23.468;2023-04-15T10:33:54;2.80;;;0.93;;
6203;SDS011;3135;42.602;23.468;2023-04-15T10:36:21;1.10;;;0.98;;
6203;SDS011;3135;42.602;23.468;2023-04-15T10:38:47;1.05;;;0.80;;
6203;SDS011;3135;42.602;23.468;2023-04-15T10:41:22;0.70;;;0.70;;
6203;SDS011;3135;42.602;23.468;2023-04-15T10:43:51;1.70;;;0.80;;
6203;SDS011;3135;42.602;23.468;2023-04-15T10:46:21;1.38;;;0.80;;
6203;SDS011;3135;42.602;23.468;2023-04-15T10:49:07;1.00;;;0.60;;
6203;SDS011;3135;42.602;23.468;2023-04-15T10:51:37;0.70;;;0.60;;
6203;SDS011;3135;42.602;23.468;2023-04-15T10:54:14;1.60;;;0.60;;
6203;SDS011;3135;42.602;23.468;2023-04-15T10:56:47;1.88;;;0.80;;
6203;SDS011;3135;42.602;23.468;2023-04-15T10:59:16;1.92;;;1.20;;
6203;SDS011;3135;42.602;23.468;2023-04-15T11:01:55;1.52;;;0.70;;
6203;SDS011;3135;42.602;23.468;2023-04-15T11:12:42;1.30;;;0.70;;
6203;SDS011;3135;42.602;23.468;2023-04-15T11:15:38;0.73;;;0.60;;
6203;SDS011;3135;42.602;23.468;2023-04-15T11:20:48;1.48;;;0.88;;
6203;SDS011;3135;42.602;23.468;2023-04-15T11:26:11;1.63;;;0.52;;
6203;SDS011;3135;42.602;23.468;2023-04-15T11:28:46;1.90;;;0.70;;
6203;SDS011;3135;42.602;23.468;2023-04-15T11:33:54;1.80;;;0.60;;
6203;SDS011;3135;42.602;23.468;2023-04-15T11:36:20;1.00;;;0.68;;
6203;SDS011;3135;42.602;23.468;2023-04-15T11:38:48;4.63;;;0.68;;
6203;SDS011;3135;42.602;23.468;2023-04-15T11:41:13;1.50;;;0.70;;
6203;SDS011;3135;42.602;23.468;2023-04-15T11:43:40;0.50;;;0.50;;
6203;SDS011;3135;42.602;23.468;2023-04-15T11:46:05;1.52;;;0.50;;
6203;SDS011;3135;42.602;23.468;2023-04-15T11:48:32;1.25;;;0.68;;
6203;SDS011;3135;42.602;23.468;2023-04-15T11:51:03;1.70;;;0.40;;
6203;SDS011;3135;42.602;23.468;2023-04-15T11:53:49;0.70;;;0.50;;
6203;SDS011;3135;42.602;23.468;2023-04-15T11:56:22;0.80;;;0.50;;
6203;SDS011;3135;42.602;23.468;2023-04-15T11:58:57;1.65;;;0.80;;
6203;SDS011;3135;42.602;23.468;2023-04-15T12:01:57;1.73;;;0.70;;
6203;SDS011;3135;42.602;23.468;2023-04-15T12:04:16;1.30;;;0.60;;
6203;SDS011;3135;42.602;23.468;2023-04-15T12:06:47;1.33;;;0.60;;
6203;SDS011;3135;42.602;23.468;2023-04-15T12:09:13;1.30;;;0.60;;
6203;SDS011;3135;42.602;23.468;2023-04-15T12:11:49;0.50;;;0.50;;
6203;SDS011;3135;42.602;23.468;2023-04-15T12:14:28;1.15;;;0.60;;
6203;SDS011;3135;42.602;23.468;2023-04-15T12:17:03;1.80;;;0.90;;
6203;SDS011;3135;42.602;23.468;2023-04-15T12:19:40;2.83;;;0.95;;
6203;SDS011;3135;42.602;23.468;2023-04-15T12:22:13;0.60;;;0.55;;
6203;SDS011;3135;42.602;23.468;2023-04-15T12:24:41;1.92;;;0.50;;
6203;SDS011;3135;42.602;23.468;2023-04-15T12:27:11;1.48;;;0.40;;
6203;SDS011;3135;42.602;23.468;2023-04-15T12:29:39;0.98;;;0.55;;
6203;SDS011;3135;42.602;23.468;2023-04-15T12:32:15;2.67;;;0.50;;
6203;SDS011;3135;42.602;23.468;2023-04-15T12:34:50;3.40;;;0.52;;
6203;SDS011;3135;42.602;23.468;2023-04-15T12:37:17;1.02;;;0.80;;
6203;SDS011;3135;42.602;23.468;2023-04-15T12:39:44;1.83;;;0.80;;
6203;SDS011;3135;42.602;23.468;2023-04-15T12:42:13;0.80;;;0.60;;
6203;SDS011;3135;42.602;23.468;2023-04-15T12:44:39;1.58;;;0.80;;
6203;SDS011;3135;42.602;23.468;2023-04-15T12:47:05;2.50;;;0.70;;
6203;SDS011;3135;42.602;23.468;2023-04-15T12:49:31;1.20;;;0.40;;
6203;SDS011;3135;42.602;23.468;2023-04-15T12:51:58;1.30;;;0.70;;
6203;SDS011;3135;42.602;23.468;2023-04-15T12:54:24;1.27;;;0.60;;
6203;SDS011;3135;42.602;23.468;2023-04-15T12:56:51;1.00;;;0.60;;
6203;SDS011;3135;42.602;23.468;2023-04-15T12:59:17;3.05;;;1.60;;
6203;SDS011;3135;42.602;23.468;2023-04-15T13:01:43;1.50;;;0.80;;
6203;SDS011;3135;42.602;23.468;2023-04-15T13:04:09;1.65;;;0.73;;
6203;SDS011;3135;42.602;23.468;2023-04-15T13:06:35;0.80;;;0.60;;
6203;SDS011;3135;42.602;23.468;2023-04-15T13:09:01;1.80;;;0.60;;
6203;SDS011;3135;42.602;23.468;2023-04-15T13:11:27;1.40;;;0.50;;
6203;SDS011;3135;42.602;23.468;2023-04-15T13:13:55;1.10;;;0.30;;
6203;SDS011;3135;42.602;23.468;2023-04-15T13:16:21;1.13;;;0.50;;
6203;SDS011;3135;42.602;23.468;2023-04-15T13:18:47;0.85;;;0.38;;
6203;SDS011;3135;42.602;23.468;2023-04-15T13:21:13;1.60;;;0.40;;
6203;SDS011;3135;42.602;23.468;2023-04-15T13:23:40;2.40;;;1.40;;
6203;SDS011;3135;42.602;23.468;2023-04-15T13:26:06;1.27;;;0.80;;
6203;SDS011;3135;42.602;23.468;2023-04-15T13:28:31;0.70;;;0.50;;
6203;SDS011;3135;42.602;23.468;2023-04-15T13:30:56;0.97;;;0.60;;
6203;SDS011;3135;42.602;23.468;2023-04-15T13:33:22;1.00;;;0.60;;
6203;SDS011;3135;42.602;23.468;2023-04-15T13:35:47;0.50;;;0.50;;
6203;SDS011;3135;42.602;23.468;2023-04-15T13:38:13;0.75;;;0.52;;
6203;SDS011;3135;42.602;23.468;2023-04-15T13:40:38;1.20;;;0.53;;
6203;SDS011;3135;42.602;23.468;2023-04-15T13:43:04;2.23;;;0.70;;
6203;SDS011;3135;42.602;23.468;2023-04-15T13:45:29;0.83;;;0.60;;
6203;SDS011;3135;42.602;23.468;2023-04-15T13:47:55;0.57;;;0.50;;
6203;SDS011;3135;42.602;23.468;2023-04-15T13:50:21;2.17;;;1.87;;
6203;SDS011;3135;42.602;23.468;2023-04-15T13:52:47;0.83;;;0.57;;
6203;SDS011;3135;42.602;23.468;2023-04-15T13:55:12;1.17;;;0.73;;
6203;SDS011;3135;42.602;23.468;2023-04-15T13:57:38;1.07;;;0.50;;
6203;SDS011;3135;42.602;23.468;2023-04-15T14:00:04;1.03;;;0.70;;
6203;SDS011;3135;42.602;23.468;2023-04-15T14:02:30;1.70;;;0.60;;
6203;SDS011;3135;42.602;23.468;2023-04-15T14:04:55;1.43;;;0.50;;
6203;SDS011;3135;42.602;23.468;2023-04-15T14:07:21;1.27;;;0.50;;
6203;SDS011;3135;42.602;23.468;2023-04-15T14:09:47;0.90;;;0.67;;
6203;SDS011;3135;42.602;23.468;2023-04-15T14:12:12;2.20;;;0.80;;
6203;SDS011;3135;42.602;23.468;2023-04-15T14:14:38;2.67;;;0.97;;
6203;SDS011;3135;42.602;23.468;2023-04-15T14:17:04;2.08;;;0.85;;
6203;SDS011;3135;42.602;23.468;2023-04-15T14:19:30;0.63;;;0.63;;
6203;SDS011;3135;42.602;23.468;2023-04-15T14:21:56;1.05;;;0.65;;
6203;SDS011;3135;42.602;23.468;2023-04-15T14:24:21;0.90;;;0.90;;
6203;SDS011;3135;42.602;23.468;2023-04-15T14:26:47;8.77;;;3.00;;
6203;SDS011;3135;42.602;23.468;2023-04-15T14:29:12;2.38;;;0.82;;
6203;SDS011;3135;42.602;23.468;2023-04-15T14:31:38;2.67;;;0.70;;
6203;SDS011;3135;42.602;23.468;2023-04-15T14:34:04;0.90;;;0.50;;
6203;SDS011;3135;42.602;23.468;2023-04-15T14:36:29;0.60;;;0.60;;
6203;SDS011;3135;42.602;23.468;2023-04-15T14:38:56;2.00;;;1.00;;
6203;SDS011;3135;42.602;23.468;2023-04-15T14:41:21;2.23;;;1.40;;
6203;SDS011;3135;42.602;23.468;2023-04-15T14:43:47;2.00;;;0.90;;
6203;SDS011;3135;42.602;23.468;2023-04-15T14:46:12;2.53;;;0.73;;
6203;SDS011;3135;42.602;23.468;2023-04-15T14:48:38;0.95;;;0.60;;
6203;SDS011;3135;42.602;23.468;2023-04-15T14:51:04;2.73;;;1.20;;
6203;SDS011;3135;42.602;23.468;2023-04-15T14:53:30;2.37;;;1.30;;
6203;SDS011;3135;42.602;23.468;2023-04-15T14:55:55;2.60;;;1.10;;
6203;SDS011;3135;42.602;23.468;2023-04-15T14:58:21;1.50;;;0.60;;
6203;SDS011;3135;42.602;23.468;2023-04-15T15:00:46;0.95;;;0.57;;
6203;SDS011;3135;42.602;23.468;2023-04-15T15:03:12;1.17;;;0.50;;
6203;SDS011;3135;42.602;23.468;2023-04-15T15:05:41;2.08;;;1.88;;
6203;SDS011;3135;42.602;23.468;2023-04-15T15:08:08;1.60;;;1.13;;
6203;SDS011;3135;42.602;23.468;2023-04-15T15:10:35;1.07;;;0.90;;
6203;SDS011;3135;42.602;23.468;2023-04-15T15:13:04;0.82;;;0.70;;
6203;SDS011;3135;42.602;23.468;2023-04-15T15:15:31;1.58;;;0.77;;
6203;SDS011;3135;42.602;23.468;2023-04-15T15:17:58;4.40;;;2.20;;
6203;SDS011;3135;42.602;23.468;2023-04-15T15:20:23;1.88;;;0.70;;